sensor_id;sensor_type;location;lat;lon;timestamp;P1;durP1;ratioP1;P2;durP2;ratioP2
4696;SDS011;2362;50.780;0.292;2024-03-07T00:02:40;2.60;;;2.30;;
4696;SDS011;2362;50.780;0.292;2024-03-07T00:05:06;3.20;;;2.03;;
4696;SDS011;2362;50.780;0.292;2024-03-07T00:07:33;3.77;;;2.17;;
4696;SDS011;2362;50.780;0.292;2024-03-07T00:10:01;5.67;;;2.40;;
4696;SDS011;2362;50.780;0.292;2024-03-07T00:12:28;4.93;;;2.53;;
4696;SDS011;2362;50.780;0.292;2024-03-07T00:14:53;7.30;;;2.60;;
4696;SDS011;2362;50.780;0.292;2024-03-07T00:17:22;5.83;;;2.67;;
4696;SDS011;2362;50.780;0.292;2024-03-07T00:19:48;6.87;;;2.60;;
4696;SDS011;2362;50.780;0.292;2024-03-07T00:22:13;5.97;;;2.80;;
4696;SDS011;2362;50.780;0.292;2024-03-07T00:24:39;4.60;;;2.50;;
4696;SDS011;2362;50.780;0.292;2024-03-07T00:27:05;2.57;;;2.37;;
4696;SDS011;2362;50.780;0.292;2024-03-07T00:29:32;8.87;;;2.67;;
4696;SDS011;2362;50.780;0.292;2024-03-07T00:32:00;5.10;;;2.70;;
4696;SDS011;2362;50.780;0.292;2024-03-07T00:34:26;5.17;;;3.00;;
4696;SDS011;2362;50.780;0.292;2024-03-07T00:36:52;7.07;;;3.43;;
4696;SDS011;2362;50.780;0.292;2024-03-07T00:39:18;4.83;;;3.00;;
4696;SDS011;2362;50.780;0.292;2024-03-07T00:41:44;5.37;;;3.37;;
4696;SDS011;2362;50.780;0.292;2024-03-07T00:44:10;6.87;;;3.30;;
4696;SDS011;2362;50.780;0.292;2024-03-07T00:46:36;4.60;;;3.57;;
4696;SDS011;2362;50.780;0.292;2024-03-07T00:49:02;9.23;;;4.00;;
4696;SDS011;2362;50.780;0.292;2024-03-07T00:51:28;5.10;;;3.60;;
4696;SDS011;2362;50.780;0.292;2024-03-07T00:53:54;6.07;;;3.53;;
4696;SDS011;2362;50.780;0.292;2024-03-07T00:56:20;4.63;;;3.70;;
4696;SDS011;2362;50.780;0.292;2024-03-07T00:58:47;5.80;;;3.53;;
4696;SDS011;2362;50.780;0.292;2024-03-07T01:01:13;8.47;;;4.03;;
4696;SDS011;2362;50.780;0.292;2024-03-07T01:03:40;8.40;;;4.23;;
4696;SDS011;2362;50.780;0.292;2024-03-07T01:06:06;4.67;;;3.63;;
4696;SDS011;2362;50.780;0.292;2024-03-07T01:08:32;5.23;;;3.63;;
4696;SDS011;2362;50.780;0.292;2024-03-07T01:10:57;7.20;;;3.57;;
4696;SDS011;2362;50.780;0.292;2024-03-07T01:13:23;8.50;;;3.87;;
4696;SDS011;2362;50.780;0.292;2024-03-07T01:15:49;6.93;;;3.80;;
4696;SDS011;2362;50.780;0.292;2024-03-07T01:18:15;6.70;;;3.23;;
4696;SDS011;2362;50.780;0.292;2024-03-07T01:21:07;5.40;;;3.57;;
4696;SDS011;2362;50.780;0.292;2024-03-07T01:23:33;5.53;;;3.77;;
4696;SDS011;2362;50.780;0.292;2024-03-07T01:25:59;5.63;;;3.47;;
4696;SDS011;2362;50.780;0.292;2024-03-07T01:28:26;9.27;;;3.57;;
4696;SDS011;2362;50.780;0.292;2024-03-07T01:30:55;4.60;;;3.93;;
4696;SDS011;2362;50.780;0.292;2024-03-07T01:33:21;6.47;;;4.07;;
4696;SDS011;2362;50.780;0.292;2024-03-07T01:35:47;8.53;;;4.63;;
4696;SDS011;2362;50.780;0.292;2024-03-07T01:38:13;6.07;;;3.93;;
4696;SDS011;2362;50.780;0.292;2024-03-07T01:40:40;4.63;;;4.20;;
4696;SDS011;2362;50.780;0.292;2024-03-07T01:43:06;9.67;;;5.43;;
4696;SDS011;2362;50.780;0.292;2024-03-07T01:45:32;6.47;;;5.13;;
4696;SDS011;2362;50.780;0.292;2024-03-07T01:47:58;7.17;;;5.53;;
4696;SDS011;2362;50.780;0.292;2024-03-07T01:50:24;6.73;;;5.23;;
4696;SDS011;2362;50.780;0.292;2024-03-07T01:53:14;7.23;;;5.17;;
4696;SDS011;2362;50.780;0.292;2024-03-07T01:56:07;9.10;;;5.73;;
4696;SDS011;2362;50.780;0.292;2024-03-07T01:58:58;6.17;;;5.57;;
4696;SDS011;2362;50.780;0.292;2024-03-07T02:01:26;7.03;;;5.60;;
4696;SDS011;2362;50.780;0.292;2024-03-07T02:03:52;7.83;;;5.93;;
4696;SDS011;2362;50.780;0.292;2024-03-07T02:06:18;10.10;;;6.63;;
4696;SDS011;2362;50.780;0.292;2024-03-07T02:08:44;11.03;;;5.97;;
4696;SDS011;2362;50.780;0.292;2024-03-07T02:11:10;9.30;;;6.33;;
4696;SDS011;2362;50.780;0.292;2024-03-07T02:13:36;9.27;;;6.97;;
4696;SDS011;2362;50.780;0.292;2024-03-07T02:16:01;6.83;;;6.00;;
4696;SDS011;2362;50.780;0.292;2024-03-07T02:18:27;11.67;;;6.50;;
4696;SDS011;2362;50.780;0.292;2024-03-07T02:20:53;10.63;;;6.40;;
4696;SDS011;2362;50.780;0.292;2024-03-07T02:23:20;7.93;;;6.03;;
4696;SDS011;2362;50.780;0.292;2024-03-07T02:25:45;8.47;;;6.87;;
4696;SDS011;2362;50.780;0.292;2024-03-07T02:28:11;7.27;;;6.57;;
4696;SDS011;2362;50.780;0.292;2024-03-07T02:30:37;10.67;;;6.90;;
4696;SDS011;2362;50.780;0.292;2024-03-07T02:33:28;8.37;;;6.17;;
4696;SDS011;2362;50.780;0.292;2024-03-07T02:35:57;8.23;;;6.10;;
4696;SDS011;2362;50.780;0.292;2024-03-07T02:38:23;8.33;;;5.70;;
4696;SDS011;2362;50.780;0.292;2024-03-07T02:40:49;11.43;;;5.63;;
4696;SDS011;2362;50.780;0.292;2024-03-07T02:43:14;8.37;;;5.80;;
4696;SDS011;2362;50.780;0.292;2024-03-07T02:45:40;10.23;;;5.90;;
4696;SDS011;2362;50.780;0.292;2024-03-07T02:48:06;7.33;;;5.80;;
4696;SDS011;2362;50.780;0.292;2024-03-07T02:50:34;7.43;;;5.80;;
4696;SDS011;2362;50.780;0.292;2024-03-07T02:53:03;9.63;;;5.80;;
4696;SDS011;2362;50.780;0.292;2024-03-07T02:55:29;7.87;;;6.47;;
4696;SDS011;2362;50.780;0.292;2024-03-07T02:57:54;10.23;;;5.83;;
4696;SDS011;2362;50.780;0.292;2024-03-07T03:00:23;9.43;;;6.10;;
4696;SDS011;2362;50.780;0.292;2024-03-07T03:02:54;6.33;;;5.73;;
4696;SDS011;2362;50.780;0.292;2024-03-07T03:05:20;6.70;;;5.20;;
4696;SDS011;2362;50.780;0.292;2024-03-07T03:07:48;11.20;;;5.53;;
4696;SDS011;2362;50.780;0.292;2024-03-07T03:10:24;14.93;;;6.10;;
4696;SDS011;2362;50.780;0.292;2024-03-07T03:12:59;6.13;;;4.47;;
4696;SDS011;2362;50.780;0.292;2024-03-07T03:15:25;6.17;;;5.00;;
4696;SDS011;2362;50.780;0.292;2024-03-07T03:17:51;5.73;;;5.13;;
4696;SDS011;2362;50.780;0.292;2024-03-07T03:20:18;7.60;;;4.90;;
4696;SDS011;2362;50.780;0.292;2024-03-07T03:22:52;6.50;;;4.87;;
4696;SDS011;2362;50.780;0.292;2024-03-07T03:25:19;8.57;;;5.00;;
4696;SDS011;2362;50.780;0.292;2024-03-07T03:27:46;8.20;;;5.10;;
4696;SDS011;2362;50.780;0.292;2024-03-07T03:30:15;8.93;;;5.33;;
4696;SDS011;2362;50.780;0.292;2024-03-07T03:32:44;8.10;;;4.70;;
4696;SDS011;2362;50.780;0.292;2024-03-07T03:35:10;7.30;;;5.27;;
4696;SDS011;2362;50.780;0.292;2024-03-07T03:37:41;7.50;;;5.33;;
4696;SDS011;2362;50.780;0.292;2024-03-07T03:40:33;6.27;;;5.20;;
4696;SDS011;2362;50.780;0.292;2024-03-07T03:42:59;7.40;;;5.40;;
4696;SDS011;2362;50.780;0.292;2024-03-07T03:45:26;6.47;;;5.80;;
4696;SDS011;2362;50.780;0.292;2024-03-07T03:47:52;6.40;;;5.00;;
4696;SDS011;2362;50.780;0.292;2024-03-07T03:50:18;8.67;;;5.63;;
4696;SDS011;2362;50.780;0.292;2024-03-07T03:52:44;8.30;;;6.50;;
4696;SDS011;2362;50.780;0.292;2024-03-07T03:55:10;7.87;;;5.77;;
4696;SDS011;2362;50.780;0.292;2024-03-07T03:57:40;8.00;;;5.60;;
4696;SDS011;2362;50.780;0.292;2024-03-07T04:00:07;6.20;;;5.50;;
4696;SDS011;2362;50.780;0.292;2024-03-07T04:02:45;6.77;;;6.07;;
4696;SDS011;2362;50.780;0.292;2024-03-07T04:05:15;9.53;;;6.30;;
4696;SDS011;2362;50.780;0.292;2024-03-07T04:07:42;8.07;;;5.63;;
4696;SDS011;2362;50.780;0.292;2024-03-07T04:10:11;7.87;;;5.80;;
4696;SDS011;2362;50.780;0.292;2024-03-07T04:12:41;9.50;;;6.53;;
4696;SDS011;2362;50.780;0.292;2024-03-07T04:15:33;13.37;;;7.27;;
4696;SDS011;2362;50.780;0.292;2024-03-07T04:18:00;10.50;;;6.63;;
4696;SDS011;2362;50.780;0.292;2024-03-07T04:20:27;12.17;;;7.20;;
4696;SDS011;2362;50.780;0.292;2024-03-07T04:22:53;9.83;;;6.77;;
4696;SDS011;2362;50.780;0.292;2024-03-07T04:25:20;10.70;;;7.40;;
4696;SDS011;2362;50.780;0.292;2024-03-07T04:27:47;15.37;;;6.97;;
4696;SDS011;2362;50.780;0.292;2024-03-07T04:30:14;8.87;;;6.80;;
4696;SDS011;2362;50.780;0.292;2024-03-07T04:32:41;9.50;;;6.97;;
4696;SDS011;2362;50.780;0.292;2024-03-07T04:35:07;7.53;;;6.77;;
4696;SDS011;2362;50.780;0.292;2024-03-07T04:37:35;12.53;;;6.53;;
4696;SDS011;2362;50.780;0.292;2024-03-07T04:40:09;8.47;;;7.13;;
4696;SDS011;2362;50.780;0.292;2024-03-07T04:42:44;11.40;;;6.60;;
4696;SDS011;2362;50.780;0.292;2024-03-07T04:45:15;7.03;;;6.40;;
4696;SDS011;2362;50.780;0.292;2024-03-07T04:47:42;10.40;;;7.03;;
4696;SDS011;2362;50.780;0.292;2024-03-07T04:50:12;9.43;;;6.30;;
4696;SDS011;2362;50.780;0.292;2024-03-07T04:52:42;8.30;;;5.83;;
4696;SDS011;2362;50.780;0.292;2024-03-07T04:55:08;9.00;;;5.67;;
4696;SDS011;2362;50.780;0.292;2024-03-07T04:57:36;7.57;;;5.93;;
4696;SDS011;2362;50.780;0.292;2024-03-07T05:00:04;7.93;;;6.13;;
4696;SDS011;2362;50.780;0.292;2024-03-07T05:02:31;7.33;;;6.60;;
4696;SDS011;2362;50.780;0.292;2024-03-07T05:04:56;27.33;;;18.33;;
4696;SDS011;2362;50.780;0.292;2024-03-07T05:07:22;27.53;;;17.83;;
4696;SDS011;2362;50.780;0.292;2024-03-07T05:09:47;18.77;;;12.13;;
4696;SDS011;2362;50.780;0.292;2024-03-07T05:12:13;24.73;;;14.97;;
4696;SDS011;2362;50.780;0.292;2024-03-07T05:14:39;34.30;;;19.10;;
4696;SDS011;2362;50.780;0.292;2024-03-07T05:17:05;33.13;;;20.07;;
4696;SDS011;2362;50.780;0.292;2024-03-07T05:19:34;31.37;;;19.30;;
4696;SDS011;2362;50.780;0.292;2024-03-07T05:22:01;34.10;;;18.97;;
4696;SDS011;2362;50.780;0.292;2024-03-07T05:24:29;44.33;;;21.93;;
4696;SDS011;2362;50.780;0.292;2024-03-07T05:26:57;32.97;;;19.13;;
4696;SDS011;2362;50.780;0.292;2024-03-07T05:29:23;22.40;;;13.33;;
4696;SDS011;2362;50.780;0.292;2024-03-07T05:31:49;39.27;;;21.23;;
4696;SDS011;2362;50.780;0.292;2024-03-07T05:34:15;12.50;;;7.97;;
4696;SDS011;2362;50.780;0.292;2024-03-07T05:36:44;8.27;;;5.77;;
4696;SDS011;2362;50.780;0.292;2024-03-07T05:39:11;7.50;;;5.30;;
4696;SDS011;2362;50.780;0.292;2024-03-07T05:41:38;9.60;;;4.50;;
4696;SDS011;2362;50.780;0.292;2024-03-07T05:44:05;6.77;;;4.83;;
4696;SDS011;2362;50.780;0.292;2024-03-07T05:46:37;8.30;;;4.50;;
4696;SDS011;2362;50.780;0.292;2024-03-07T05:49:09;4.50;;;4.07;;
4696;SDS011;2362;50.780;0.292;2024-03-07T05:51:36;6.83;;;4.40;;
4696;SDS011;2362;50.780;0.292;2024-03-07T05:54:02;9.93;;;4.27;;
4696;SDS011;2362;50.780;0.292;2024-03-07T05:56:48;6.40;;;4.03;;
4696;SDS011;2362;50.780;0.292;2024-03-07T05:59:13;7.13;;;4.93;;
4696;SDS011;2362;50.780;0.292;2024-03-07T06:01:41;7.20;;;4.50;;
4696;SDS011;2362;50.780;0.292;2024-03-07T06:04:10;10.27;;;5.37;;
4696;SDS011;2362;50.780;0.292;2024-03-07T06:06:36;7.23;;;4.53;;
4696;SDS011;2362;50.780;0.292;2024-03-07T06:09:03;9.20;;;5.67;;
4696;SDS011;2362;50.780;0.292;2024-03-07T06:11:36;8.37;;;5.50;;
4696;SDS011;2362;50.780;0.292;2024-03-07T06:14:03;15.00;;;10.87;;
4696;SDS011;2362;50.780;0.292;2024-03-07T06:16:30;10.43;;;7.87;;
4696;SDS011;2362;50.780;0.292;2024-03-07T06:18:58;25.90;;;15.03;;
4696;SDS011;2362;50.780;0.292;2024-03-07T06:21:27;25.27;;;15.57;;
4696;SDS011;2362;50.780;0.292;2024-03-07T06:23:55;23.03;;;15.67;;
4696;SDS011;2362;50.780;0.292;2024-03-07T06:26:28;26.23;;;16.10;;
4696;SDS011;2362;50.780;0.292;2024-03-07T06:29:06;22.37;;;15.50;;
4696;SDS011;2362;50.780;0.292;2024-03-07T06:31:36;30.70;;;16.97;;
4696;SDS011;2362;50.780;0.292;2024-03-07T06:34:03;27.20;;;16.00;;
4696;SDS011;2362;50.780;0.292;2024-03-07T06:36:29;26.90;;;15.63;;
4696;SDS011;2362;50.780;0.292;2024-03-07T06:38:55;26.13;;;15.60;;
4696;SDS011;2362;50.780;0.292;2024-03-07T06:41:21;25.03;;;16.53;;
4696;SDS011;2362;50.780;0.292;2024-03-07T06:43:46;23.33;;;14.57;;
4696;SDS011;2362;50.780;0.292;2024-03-07T06:46:13;24.97;;;15.77;;
4696;SDS011;2362;50.780;0.292;2024-03-07T06:48:41;25.47;;;16.77;;
4696;SDS011;2362;50.780;0.292;2024-03-07T06:51:08;25.07;;;16.83;;
4696;SDS011;2362;50.780;0.292;2024-03-07T06:53:35;32.40;;;16.97;;
4696;SDS011;2362;50.780;0.292;2024-03-07T06:56:05;28.60;;;16.97;;
4696;SDS011;2362;50.780;0.292;2024-03-07T06:58:31;29.37;;;18.70;;
4696;SDS011;2362;50.780;0.292;2024-03-07T07:00:58;29.87;;;17.60;;
4696;SDS011;2362;50.780;0.292;2024-03-07T07:03:25;33.93;;;18.80;;
4696;SDS011;2362;50.780;0.292;2024-03-07T07:05:53;34.93;;;18.57;;
4696;SDS011;2362;50.780;0.292;2024-03-07T07:08:19;35.10;;;19.73;;
4696;SDS011;2362;50.780;0.292;2024-03-07T07:10:45;29.67;;;18.47;;
4696;SDS011;2362;50.780;0.292;2024-03-07T07:13:12;33.03;;;18.80;;
4696;SDS011;2362;50.780;0.292;2024-03-07T07:15:38;29.67;;;19.03;;
4696;SDS011;2362;50.780;0.292;2024-03-07T07:18:04;31.93;;;20.30;;
4696;SDS011;2362;50.780;0.292;2024-03-07T07:20:32;32.50;;;20.70;;
4696;SDS011;2362;50.780;0.292;2024-03-07T07:23:01;31.83;;;19.87;;
4696;SDS011;2362;50.780;0.292;2024-03-07T07:25:28;31.90;;;20.07;;
4696;SDS011;2362;50.780;0.292;2024-03-07T07:27:54;35.40;;;19.17;;
4696;SDS011;2362;50.780;0.292;2024-03-07T07:30:20;31.80;;;20.53;;
4696;SDS011;2362;50.780;0.292;2024-03-07T07:32:51;34.70;;;20.77;;
4696;SDS011;2362;50.780;0.292;2024-03-07T07:35:18;36.97;;;20.30;;
4696;SDS011;2362;50.780;0.292;2024-03-07T07:37:45;38.97;;;22.23;;
4696;SDS011;2362;50.780;0.292;2024-03-07T07:40:18;41.80;;;22.63;;
4696;SDS011;2362;50.780;0.292;2024-03-07T07:42:45;31.13;;;20.90;;
4696;SDS011;2362;50.780;0.292;2024-03-07T07:45:11;38.13;;;21.90;;
4696;SDS011;2362;50.780;0.292;2024-03-07T07:47:42;39.77;;;22.40;;
4696;SDS011;2362;50.780;0.292;2024-03-07T07:50:14;37.60;;;23.93;;
4696;SDS011;2362;50.780;0.292;2024-03-07T07:55:20;37.57;;;21.60;;
4696;SDS011;2362;50.780;0.292;2024-03-07T07:57:52;38.10;;;22.97;;
4696;SDS011;2362;50.780;0.292;2024-03-07T08:00:20;36.77;;;23.70;;
4696;SDS011;2362;50.780;0.292;2024-03-07T08:02:50;36.30;;;24.00;;
4696;SDS011;2362;50.780;0.292;2024-03-07T08:05:23;40.77;;;23.37;;
4696;SDS011;2362;50.780;0.292;2024-03-07T08:07:50;38.60;;;23.87;;
4696;SDS011;2362;50.780;0.292;2024-03-07T08:10:17;32.10;;;23.00;;
4696;SDS011;2362;50.780;0.292;2024-03-07T08:12:43;39.40;;;23.33;;
4696;SDS011;2362;50.780;0.292;2024-03-07T08:15:11;34.20;;;23.30;;
4696;SDS011;2362;50.780;0.292;2024-03-07T08:17:47;44.17;;;24.33;;
4696;SDS011;2362;50.780;0.292;2024-03-07T08:20:15;40.60;;;25.70;;
4696;SDS011;2362;50.780;0.292;2024-03-07T08:22:43;39.03;;;25.13;;
4696;SDS011;2362;50.780;0.292;2024-03-07T08:25:13;42.93;;;25.67;;
4696;SDS011;2362;50.780;0.292;2024-03-07T08:27:40;40.37;;;25.33;;
4696;SDS011;2362;50.780;0.292;2024-03-07T08:30:11;38.33;;;26.30;;
4696;SDS011;2362;50.780;0.292;2024-03-07T08:32:40;39.10;;;25.67;;
4696;SDS011;2362;50.780;0.292;2024-03-07T08:35:07;42.07;;;27.03;;
4696;SDS011;2362;50.780;0.292;2024-03-07T08:37:47;45.37;;;26.10;;
4696;SDS011;2362;50.780;0.292;2024-03-07T08:40:18;46.83;;;28.20;;
4696;SDS011;2362;50.780;0.292;2024-03-07T08:42:45;53.17;;;30.90;;
4696;SDS011;2362;50.780;0.292;2024-03-07T08:45:12;53.77;;;31.97;;
4696;SDS011;2362;50.780;0.292;2024-03-07T08:47:42;61.60;;;33.63;;
4696;SDS011;2362;50.780;0.292;2024-03-07T08:50:08;68.40;;;34.80;;
4696;SDS011;2362;50.780;0.292;2024-03-07T08:52:37;71.60;;;37.00;;
4696;SDS011;2362;50.780;0.292;2024-03-07T08:55:04;72.57;;;37.27;;
4696;SDS011;2362;50.780;0.292;2024-03-07T08:57:31;80.63;;;39.47;;
4696;SDS011;2362;50.780;0.292;2024-03-07T08:59:56;81.07;;;39.73;;
4696;SDS011;2362;50.780;0.292;2024-03-07T09:02:22;85.13;;;41.57;;
4696;SDS011;2362;50.780;0.292;2024-03-07T09:04:49;82.33;;;41.37;;
4696;SDS011;2362;50.780;0.292;2024-03-07T09:07:15;92.80;;;42.50;;
4696;SDS011;2362;50.780;0.292;2024-03-07T09:09:41;89.73;;;43.83;;
4696;SDS011;2362;50.780;0.292;2024-03-07T09:12:08;94.03;;;43.50;;
4696;SDS011;2362;50.780;0.292;2024-03-07T09:14:34;89.77;;;42.77;;
4696;SDS011;2362;50.780;0.292;2024-03-07T09:17:01;87.10;;;41.27;;
4696;SDS011;2362;50.780;0.292;2024-03-07T09:19:26;89.63;;;43.70;;
4696;SDS011;2362;50.780;0.292;2024-03-07T09:21:53;80.50;;;41.33;;
4696;SDS011;2362;50.780;0.292;2024-03-07T09:24:19;87.83;;;42.90;;
4696;SDS011;2362;50.780;0.292;2024-03-07T09:26:48;85.03;;;44.03;;
4696;SDS011;2362;50.780;0.292;2024-03-07T09:29:15;83.90;;;44.53;;
4696;SDS011;2362;50.780;0.292;2024-03-07T09:31:41;82.57;;;43.77;;
4696;SDS011;2362;50.780;0.292;2024-03-07T09:34:07;85.27;;;43.83;;
4696;SDS011;2362;50.780;0.292;2024-03-07T09:36:33;83.43;;;44.70;;
4696;SDS011;2362;50.780;0.292;2024-03-07T09:38:59;96.40;;;47.83;;
4696;SDS011;2362;50.780;0.292;2024-03-07T09:41:25;85.93;;;48.30;;
4696;SDS011;2362;50.780;0.292;2024-03-07T09:43:51;93.60;;;49.87;;
4696;SDS011;2362;50.780;0.292;2024-03-07T09:46:20;93.77;;;50.37;;
4696;SDS011;2362;50.780;0.292;2024-03-07T09:48:47;86.37;;;49.40;;
4696;SDS011;2362;50.780;0.292;2024-03-07T09:51:15;90.13;;;50.37;;
4696;SDS011;2362;50.780;0.292;2024-03-07T09:53:42;85.80;;;48.53;;
4696;SDS011;2362;50.780;0.292;2024-03-07T09:56:10;87.43;;;46.57;;
4696;SDS011;2362;50.780;0.292;2024-03-07T09:58:38;87.83;;;48.20;;
4696;SDS011;2362;50.780;0.292;2024-03-07T10:01:06;79.37;;;48.13;;
4696;SDS011;2362;50.780;0.292;2024-03-07T10:03:35;85.37;;;48.40;;
4696;SDS011;2362;50.780;0.292;2024-03-07T10:06:01;78.80;;;46.43;;
4696;SDS011;2362;50.780;0.292;2024-03-07T10:08:28;81.53;;;45.93;;
4696;SDS011;2362;50.780;0.292;2024-03-07T10:10:55;85.73;;;47.43;;
4696;SDS011;2362;50.780;0.292;2024-03-07T10:13:23;75.50;;;46.43;;
4696;SDS011;2362;50.780;0.292;2024-03-07T10:15:50;85.20;;;47.90;;
4696;SDS011;2362;50.780;0.292;2024-03-07T10:18:18;82.57;;;49.43;;
4696;SDS011;2362;50.780;0.292;2024-03-07T10:20:47;82.17;;;48.63;;
4696;SDS011;2362;50.780;0.292;2024-03-07T10:23:18;90.43;;;52.97;;
4696;SDS011;2362;50.780;0.292;2024-03-07T10:25:46;85.03;;;53.50;;
4696;SDS011;2362;50.780;0.292;2024-03-07T10:28:12;97.70;;;52.37;;
4696;SDS011;2362;50.780;0.292;2024-03-07T10:30:41;93.70;;;53.43;;
4696;SDS011;2362;50.780;0.292;2024-03-07T10:33:09;90.40;;;53.20;;
4696;SDS011;2362;50.780;0.292;2024-03-07T10:35:37;98.50;;;53.93;;
4696;SDS011;2362;50.780;0.292;2024-03-07T10:38:03;94.97;;;54.37;;
4696;SDS011;2362;50.780;0.292;2024-03-07T10:40:32;102.07;;;57.90;;
4696;SDS011;2362;50.780;0.292;2024-03-07T10:43:00;101.93;;;55.33;;
4696;SDS011;2362;50.780;0.292;2024-03-07T10:45:35;101.03;;;57.57;;
4696;SDS011;2362;50.780;0.292;2024-03-07T10:48:12;101.87;;;57.77;;
4696;SDS011;2362;50.780;0.292;2024-03-07T10:50:43;99.17;;;55.13;;
4696;SDS011;2362;50.780;0.292;2024-03-07T10:53:20;92.10;;;52.40;;
4696;SDS011;2362;50.780;0.292;2024-03-07T11:01:30;98.07;;;51.20;;
4696;SDS011;2362;50.780;0.292;2024-03-07T11:04:00;93.27;;;53.33;;
4696;SDS011;2362;50.780;0.292;2024-03-07T11:06:29;96.70;;;52.03;;
4696;SDS011;2362;50.780;0.292;2024-03-07T11:08:59;93.93;;;53.40;;
4696;SDS011;2362;50.780;0.292;2024-03-07T11:11:29;101.13;;;52.50;;
4696;SDS011;2362;50.780;0.292;2024-03-07T11:13:56;96.23;;;54.07;;
4696;SDS011;2362;50.780;0.292;2024-03-07T11:16:26;96.20;;;53.67;;
4696;SDS011;2362;50.780;0.292;2024-03-07T11:21:51;89.23;;;52.53;;
4696;SDS011;2362;50.780;0.292;2024-03-07T11:24:27;91.53;;;50.90;;
4696;SDS011;2362;50.780;0.292;2024-03-07T11:26:58;87.13;;;50.20;;
4696;SDS011;2362;50.780;0.292;2024-03-07T11:29:40;89.90;;;50.13;;
4696;SDS011;2362;50.780;0.292;2024-03-07T11:32:16;93.33;;;51.13;;
4696;SDS011;2362;50.780;0.292;2024-03-07T11:34:42;92.60;;;51.93;;
4696;SDS011;2362;50.780;0.292;2024-03-07T11:37:19;89.83;;;48.93;;
4696;SDS011;2362;50.780;0.292;2024-03-07T11:39:48;87.00;;;48.03;;
4696;SDS011;2362;50.780;0.292;2024-03-07T11:42:27;88.67;;;49.20;;
4696;SDS011;2362;50.780;0.292;2024-03-07T11:44:55;83.77;;;47.83;;
4696;SDS011;2362;50.780;0.292;2024-03-07T11:47:22;84.07;;;48.33;;
4696;SDS011;2362;50.780;0.292;2024-03-07T11:49:54;84.10;;;46.63;;
4696;SDS011;2362;50.780;0.292;2024-03-07T11:52:23;93.83;;;49.53;;
4696;SDS011;2362;50.780;0.292;2024-03-07T11:54:49;82.83;;;47.23;;
4696;SDS011;2362;50.780;0.292;2024-03-07T11:57:16;83.10;;;45.87;;
4696;SDS011;2362;50.780;0.292;2024-03-07T11:59:44;89.90;;;48.43;;
4696;SDS011;2362;50.780;0.292;2024-03-07T12:02:13;92.03;;;48.30;;
4696;SDS011;2362;50.780;0.292;2024-03-07T12:04:43;88.00;;;46.90;;
4696;SDS011;2362;50.780;0.292;2024-03-07T12:07:09;89.20;;;49.00;;
4696;SDS011;2362;50.780;0.292;2024-03-07T12:09:40;89.43;;;48.43;;
4696;SDS011;2362;50.780;0.292;2024-03-07T12:12:11;94.30;;;49.97;;
4696;SDS011;2362;50.780;0.292;2024-03-07T12:14:37;93.23;;;50.03;;
4696;SDS011;2362;50.780;0.292;2024-03-07T12:17:04;91.77;;;50.47;;
4696;SDS011;2362;50.780;0.292;2024-03-07T12:19:31;93.13;;;48.57;;
4696;SDS011;2362;50.780;0.292;2024-03-07T12:22:01;87.80;;;49.43;;
4696;SDS011;2362;50.780;0.292;2024-03-07T12:25:02;85.03;;;47.63;;
4696;SDS011;2362;50.780;0.292;2024-03-07T12:27:28;90.60;;;48.23;;
4696;SDS011;2362;50.780;0.292;2024-03-07T12:29:54;83.83;;;45.60;;
4696;SDS011;2362;50.780;0.292;2024-03-07T12:32:20;84.00;;;45.87;;
4696;SDS011;2362;50.780;0.292;2024-03-07T12:34:46;81.03;;;45.20;;
4696;SDS011;2362;50.780;0.292;2024-03-07T12:37:12;82.30;;;45.33;;
4696;SDS011;2362;50.780;0.292;2024-03-07T12:39:45;82.30;;;44.60;;
4696;SDS011;2362;50.780;0.292;2024-03-07T12:42:17;83.37;;;43.10;;
4696;SDS011;2362;50.780;0.292;2024-03-07T12:44:45;76.50;;;44.03;;
4696;SDS011;2362;50.780;0.292;2024-03-07T12:47:14;78.03;;;44.63;;
4696;SDS011;2362;50.780;0.292;2024-03-07T12:49:41;92.77;;;45.90;;
4696;SDS011;2362;50.780;0.292;2024-03-07T12:52:07;73.33;;;42.83;;
4696;SDS011;2362;50.780;0.292;2024-03-07T12:54:34;81.73;;;44.00;;
4696;SDS011;2362;50.780;0.292;2024-03-07T12:57:09;76.00;;;43.60;;
4696;SDS011;2362;50.780;0.292;2024-03-07T12:59:36;77.90;;;43.87;;
4696;SDS011;2362;50.780;0.292;2024-03-07T13:02:05;68.93;;;40.03;;
4696;SDS011;2362;50.780;0.292;2024-03-07T13:04:32;71.33;;;40.20;;
4696;SDS011;2362;50.780;0.292;2024-03-07T13:06:57;75.97;;;41.77;;
4696;SDS011;2362;50.780;0.292;2024-03-07T13:09:25;74.33;;;38.97;;
4696;SDS011;2362;50.780;0.292;2024-03-07T13:11:55;68.27;;;39.77;;
4696;SDS011;2362;50.780;0.292;2024-03-07T13:14:54;67.27;;;39.97;;
4696;SDS011;2362;50.780;0.292;2024-03-07T13:17:20;66.00;;;38.27;;
4696;SDS011;2362;50.780;0.292;2024-03-07T13:19:46;69.60;;;40.00;;
4696;SDS011;2362;50.780;0.292;2024-03-07T13:22:14;68.67;;;40.30;;
4696;SDS011;2362;50.780;0.292;2024-03-07T13:24:40;66.10;;;39.77;;
4696;SDS011;2362;50.780;0.292;2024-03-07T13:27:07;61.33;;;35.83;;
4696;SDS011;2362;50.780;0.292;2024-03-07T13:29:36;65.23;;;37.40;;
4696;SDS011;2362;50.780;0.292;2024-03-07T13:32:01;68.60;;;38.97;;
4696;SDS011;2362;50.780;0.292;2024-03-07T13:34:29;64.40;;;37.27;;
4696;SDS011;2362;50.780;0.292;2024-03-07T13:36:54;61.23;;;36.80;;
4696;SDS011;2362;50.780;0.292;2024-03-07T13:39:23;61.17;;;37.30;;
4696;SDS011;2362;50.780;0.292;2024-03-07T13:41:49;60.67;;;35.80;;
4696;SDS011;2362;50.780;0.292;2024-03-07T13:44:15;60.30;;;37.17;;
4696;SDS011;2362;50.780;0.292;2024-03-07T13:46:41;62.57;;;36.43;;
4696;SDS011;2362;50.780;0.292;2024-03-07T13:49:07;62.30;;;36.30;;
4696;SDS011;2362;50.780;0.292;2024-03-07T13:51:37;66.37;;;38.50;;
4696;SDS011;2362;50.780;0.292;2024-03-07T13:54:05;58.03;;;36.70;;
4696;SDS011;2362;50.780;0.292;2024-03-07T14:03:30;70.40;;;39.10;;
4696;SDS011;2362;50.780;0.292;2024-03-07T14:06:33;68.53;;;36.97;;
4696;SDS011;2362;50.780;0.292;2024-03-07T14:09:17;66.33;;;39.00;;
4696;SDS011;2362;50.780;0.292;2024-03-07T14:17:58;70.40;;;39.17;;
4696;SDS011;2362;50.780;0.292;2024-03-07T14:20:44;79.77;;;43.43;;
4696;SDS011;2362;50.780;0.292;2024-03-07T14:32:13;70.83;;;41.60;;
4696;SDS011;2362;50.780;0.292;2024-03-07T14:38:06;69.60;;;41.60;;
4696;SDS011;2362;50.780;0.292;2024-03-07T14:40:54;76.33;;;41.03;;
4696;SDS011;2362;50.780;0.292;2024-03-07T14:43:21;70.37;;;41.67;;
4696;SDS011;2362;50.780;0.292;2024-03-07T14:45:47;75.03;;;42.23;;
4696;SDS011;2362;50.780;0.292;2024-03-07T14:48:14;79.03;;;40.83;;
4696;SDS011;2362;50.780;0.292;2024-03-07T14:50:43;71.37;;;43.03;;
4696;SDS011;2362;50.780;0.292;2024-03-07T14:53:11;75.33;;;39.87;;
4696;SDS011;2362;50.780;0.292;2024-03-07T14:55:38;81.90;;;42.53;;
4696;SDS011;2362;50.780;0.292;2024-03-07T14:58:05;77.00;;;41.80;;
4696;SDS011;2362;50.780;0.292;2024-03-07T15:00:34;74.40;;;42.20;;
4696;SDS011;2362;50.780;0.292;2024-03-07T15:03:06;77.77;;;42.40;;
4696;SDS011;2362;50.780;0.292;2024-03-07T15:05:35;79.07;;;42.80;;
4696;SDS011;2362;50.780;0.292;2024-03-07T15:08:01;75.00;;;42.70;;
4696;SDS011;2362;50.780;0.292;2024-03-07T15:10:28;77.47;;;42.67;;
4696;SDS011;2362;50.780;0.292;2024-03-07T15:12:59;73.70;;;42.17;;
4696;SDS011;2362;50.780;0.292;2024-03-07T15:15:25;73.10;;;42.57;;
4696;SDS011;2362;50.780;0.292;2024-03-07T15:17:53;72.00;;;42.57;;
4696;SDS011;2362;50.780;0.292;2024-03-07T15:20:19;76.97;;;41.53;;
4696;SDS011;2362;50.780;0.292;2024-03-07T15:22:57;78.20;;;42.67;;
4696;SDS011;2362;50.780;0.292;2024-03-07T15:25:31;74.87;;;42.10;;
4696;SDS011;2362;50.780;0.292;2024-03-07T15:27:57;75.53;;;41.47;;
4696;SDS011;2362;50.780;0.292;2024-03-07T15:30:24;78.20;;;40.70;;
4696;SDS011;2362;50.780;0.292;2024-03-07T15:32:57;81.00;;;42.47;;
4696;SDS011;2362;50.780;0.292;2024-03-07T15:35:23;82.57;;;41.63;;
4696;SDS011;2362;50.780;0.292;2024-03-07T15:37:51;85.50;;;41.13;;
4696;SDS011;2362;50.780;0.292;2024-03-07T15:40:18;77.60;;;41.20;;
4696;SDS011;2362;50.780;0.292;2024-03-07T15:42:46;75.93;;;41.33;;
4696;SDS011;2362;50.780;0.292;2024-03-07T15:45:19;75.43;;;40.03;;